createdAt,value
2022-09-04T00:00:38.024Z,100149.50
2022-09-04T00:03:21.342Z,100151.63
2022-09-04T00:05:50.966Z,100155.75
2022-09-04T00:08:36.441Z,100155.19
2022-09-04T00:11:09.476Z,100156.81
2022-09-04T00:13:43.832Z,100151.81
2022-09-04T00:16:14.404Z,100160.81
2022-09-04T00:18:45.326Z,100160.84
2022-09-04T00:21:18.345Z,100160.31
2022-09-04T00:23:51.782Z,100154.25
2022-09-04T00:26:46.591Z,100158.44
2022-09-04T00:29:24.231Z,100159.16
2022-09-04T00:31:56.512Z,100157.53
2022-09-04T00:34:42.562Z,100162.97
2022-09-04T00:37:11.482Z,100156.16
2022-09-04T00:39:40.496Z,100160.38
2022-09-04T00:42:10.406Z,100160.38
2022-09-04T00:44:49.489Z,100165.09
2022-09-04T00:47:28.356Z,100164.84
2022-09-04T00:50:04.190Z,100165.19
2022-09-04T00:52:45.748Z,100168.34
2022-09-04T00:55:22.090Z,100167.00
2022-09-04T00:58:21.746Z,100162.28
2022-09-04T01:00:49.573Z,100169.84
2022-09-04T01:03:22.890Z,100167.22
2022-09-04T01:06:08.230Z,100169.38
2022-09-04T01:08:35.691Z,100172.28
2022-09-04T01:11:26.876Z,100179.47
2022-09-04T01:14:03.464Z,100169.91
2022-09-04T01:16:47.070Z,100180.25
2022-09-04T01:19:26.340Z,100179.75
2022-09-04T01:22:12.005Z,100179.69
2022-09-04T01:24:39.572Z,100175.47
2022-09-04T01:27:13.638Z,100177.28
2022-09-04T01:29:43.751Z,100177.81
2022-09-04T01:32:24.651Z,100167.84
2022-09-04T01:35:10.339Z,100178.84
2022-09-04T01:37:43.261Z,100184.03
2022-09-04T01:40:13.477Z,100181.41
2022-09-04T01:42:50.938Z,100182.50
2022-09-04T01:45:25.571Z,100176.72
2022-09-04T01:47:58.651Z,100176.94
2022-09-04T01:50:27.709Z,100183.56
2022-09-04T01:52:54.458Z,100180.59
2022-09-04T01:55:24.389Z,100179.03
2022-09-04T01:58:06.504Z,100180.59
2022-09-04T02:00:37.914Z,100181.91
2022-09-04T02:03:25.490Z,100182.06
2022-09-04T02:06:05.298Z,100185.97
2022-09-04T02:08:43.744Z,100178.00
2022-09-04T02:11:10.632Z,100178.25
2022-09-04T02:13:45.580Z,100174.31
2022-09-04T02:16:20.094Z,100175.34
2022-09-04T02:18:47.598Z,100176.94
2022-09-04T02:21:14.371Z,100178.53
2022-09-04T02:23:46.756Z,100185.53
2022-09-04T02:26:20.081Z,100184.38
2022-09-04T02:29:01.216Z,100181.25
2022-09-04T02:31:58.398Z,100184.50
2022-09-04T02:34:34.041Z,100183.22
2022-09-04T02:37:03.997Z,100187.72
2022-09-04T02:39:45.957Z,100180.97
2022-09-04T02:42:19.604Z,100185.19
2022-09-04T02:45:05.006Z,100187.31
2022-09-04T02:47:38.444Z,100188.91
2022-09-04T02:50:20.220Z,100187.94
2022-09-04T02:52:53.203Z,100187.56
2022-09-04T02:55:31.963Z,100191.16
2022-09-04T02:58:01.852Z,100186.66
2022-09-04T03:00:36.526Z,100190.34
2022-09-04T03:03:06.776Z,100183.59
2022-09-04T03:05:36.850Z,100184.38
2022-09-04T03:08:03.994Z,100192.41
2022-09-04T03:10:33.939Z,100187.88
2022-09-04T03:13:05.460Z,100184.25
2022-09-04T03:15:35.160Z,100181.75
2022-09-04T03:18:26.136Z,100184.53
2022-09-04T03:21:11.147Z,100186.28
2022-09-04T03:24:01.154Z,100190.03
2022-09-04T03:26:39.385Z,100191.09
2022-09-04T03:29:10.121Z,100195.16
2022-09-04T03:31:46.020Z,100200.88
2022-09-04T03:34:18.869Z,100200.47
2022-09-04T03:37:06.767Z,100211.38
2022-09-04T03:39:40.802Z,100218.25
2022-09-04T03:42:17.181Z,100225.03
2022-09-04T03:44:47.106Z,100220.31
2022-09-04T03:47:30.145Z,100232.13
2022-09-04T03:50:00.343Z,100234.50
2022-09-04T03:52:47.105Z,100222.47
2022-09-04T03:55:23.311Z,100232.13
2022-09-04T03:58:09.223Z,100225.75
2022-09-04T04:00:48.193Z,100226.94
2022-09-04T04:03:34.220Z,100219.94
2022-09-04T04:06:19.904Z,100209.22
2022-09-04T04:09:13.333Z,100211.38
2022-09-04T04:11:46.158Z,100230.81
2022-09-04T04:14:37.721Z,100241.50
2022-09-04T04:17:23.272Z,100234.50
2022-09-04T04:19:50.470Z,100245.31
2022-09-04T04:22:17.326Z,100247.53
2022-09-04T04:24:51.195Z,100267.88
2022-09-04T04:27:18.387Z,100292.03
2022-09-04T04:30:04.568Z,100278.72
2022-09-04T04:32:44.069Z,100280.13
2022-09-04T04:35:12.725Z,100279.44
2022-09-04T04:38:05.809Z,100285.19
2022-09-04T04:40:33.235Z,100273.13
2022-09-04T04:43:20.072Z,100276.53
2022-09-04T04:45:58.311Z,100288.84
2022-09-04T04:48:25.647Z,100279.75
2022-09-04T04:51:12.124Z,100278.53
2022-09-04T04:53:57.492Z,100278.44
2022-09-04T04:56:29.497Z,100285.28
2022-09-04T04:59:04.010Z,100290.97
2022-09-04T05:01:42.562Z,100289.72
2022-09-04T05:04:30.148Z,100285.47
2022-09-04T05:07:00.054Z,100292.75
2022-09-04T05:09:34.986Z,100293.25
2022-09-04T05:12:07.121Z,100296.97
2022-09-04T05:14:34.117Z,100297.69
2022-09-04T05:17:20.171Z,100306.44
2022-09-04T05:19:54.585Z,100308.47
2022-09-04T05:22:38.944Z,100318.88
2022-09-04T05:28:11.427Z,100323.53
2022-09-04T05:30:44.232Z,100331.25
2022-09-04T05:33:13.707Z,100328.63
2022-09-04T05:36:02.349Z,100334.75
2022-09-04T05:38:49.425Z,100340.88
2022-09-04T05:41:22.392Z,100341.03
2022-09-04T05:43:57.795Z,100348.19
2022-09-04T05:46:45.245Z,100347.28
2022-09-04T05:49:15.049Z,100352.16
2022-09-04T05:52:14.333Z,100351.00
2022-09-04T05:54:53.110Z,100353.88
2022-09-04T05:57:40.485Z,100364.94
2022-09-04T06:00:09.718Z,100376.53
2022-09-04T06:02:55.023Z,100379.78
2022-09-04T06:05:41.475Z,100384.72
2022-09-04T06:08:28.769Z,100391.69
2022-09-04T06:10:58.687Z,100399.75
2022-09-04T06:13:37.519Z,100387.75
2022-09-04T06:16:22.511Z,100403.19
2022-09-04T06:18:57.295Z,100390.94
2022-09-04T06:21:27.035Z,100394.59
2022-09-04T06:24:11.092Z,100402.72
2022-09-04T06:26:44.999Z,100408.63
2022-09-04T06:29:15.334Z,100400.22
2022-09-04T06:31:45.803Z,100396.91
2022-09-04T06:34:33.189Z,100401.94
2022-09-04T06:37:00.074Z,100397.19
2022-09-04T06:39:27.276Z,100398.47
2022-09-04T06:41:57.471Z,100400.09
2022-09-04T06:44:24.265Z,100407.00
2022-09-04T06:46:54.235Z,100410.91
2022-09-04T06:49:35.611Z,100409.84
2022-09-04T06:52:22.374Z,100411.50
2022-09-04T06:55:12.669Z,100410.41
2022-09-04T06:57:58.048Z,100410.66
2022-09-04T07:00:28.362Z,100424.94
2022-09-04T07:03:11.188Z,100433.72
2022-09-04T07:06:03.685Z,100424.16
2022-09-04T07:08:31.169Z,100425.09
2022-09-04T07:11:16.728Z,100429.72
2022-09-04T07:13:48.531Z,100437.75
2022-09-04T07:16:35.660Z,100447.53
2022-09-04T07:19:15.196Z,100445.13
2022-09-04T07:21:49.567Z,100452.28
2022-09-04T07:24:41.643Z,100448.69
2022-09-04T07:27:15.797Z,100448.13
2022-09-04T07:30:00.423Z,100459.31
2022-09-04T07:32:46.208Z,100459.72
2022-09-04T07:35:17.329Z,100462.88
2022-09-04T07:37:58.539Z,100468.06
2022-09-04T07:40:59.322Z,100470.75
2022-09-04T07:43:29.249Z,100479.00
2022-09-04T07:46:17.926Z,100483.53
2022-09-04T07:49:09.680Z,100485.16
2022-09-04T07:51:43.099Z,100493.00
2022-09-04T07:54:22.438Z,100497.06
2022-09-04T07:56:56.164Z,100495.03
2022-09-04T07:59:42.053Z,100490.59
2022-09-04T08:02:16.412Z,100492.78
2022-09-04T08:04:50.645Z,100490.84
2022-09-04T08:07:21.521Z,100493.00
2022-09-04T08:09:54.744Z,100498.03
2022-09-04T08:12:21.840Z,100491.28
2022-09-04T08:15:07.538Z,100491.28
2022-09-04T08:17:37.246Z,100500.19
2022-09-04T08:20:28.949Z,100499.16
2022-09-04T08:23:04.558Z,100510.78
2022-09-04T08:25:50.138Z,100503.84
2022-09-04T08:28:28.047Z,100514.44
2022-09-04T08:31:01.808Z,100520.25
2022-09-04T08:33:39.240Z,100507.22
2022-09-04T08:36:16.071Z,100517.06
2022-09-04T08:39:06.604Z,100516.13
2022-09-04T08:41:43.387Z,100525.72
2022-09-04T08:44:10.606Z,100517.41
2022-09-04T08:46:38.481Z,100528.69
2022-09-04T08:49:24.617Z,100534.59
2022-09-04T08:51:51.974Z,100530.72
2022-09-04T08:54:37.463Z,100533.13
2022-09-04T08:57:13.952Z,100543.19
2022-09-04T08:59:59.668Z,100544.09
2022-09-04T09:02:54.922Z,100548.91
2022-09-04T09:05:40.643Z,100537.19
2022-09-04T09:08:16.455Z,100540.19
2022-09-04T09:11:02.224Z,100553.19
2022-09-04T09:13:38.684Z,100544.16
2022-09-04T09:16:32.042Z,100550.00
2022-09-04T09:18:59.204Z,100545.31
2022-09-04T09:21:40.214Z,100556.78
2022-09-04T09:24:26.280Z,100557.19
2022-09-04T09:26:53.119Z,100557.28
2022-09-04T09:29:28.118Z,100559.84
2022-09-04T09:32:01.639Z,100549.69
2022-09-04T09:34:39.882Z,100547.13
2022-09-04T09:37:21.260Z,100544.38
2022-09-04T09:39:51.551Z,100548.38
2022-09-04T09:42:30.977Z,100551.13
2022-09-04T09:45:01.257Z,100560.78
2022-09-04T09:47:51.528Z,100561.72
2022-09-04T09:50:37.434Z,100558.09
2022-09-04T09:53:10.468Z,100562.88
2022-09-04T09:55:57.226Z,100564.28
2022-09-04T09:58:31.747Z,100561.53
2022-09-04T10:01:24.965Z,100561.16
2022-09-04T10:04:10.105Z,100548.44
2022-09-04T10:06:55.636Z,100562.88
2022-09-04T10:09:28.401Z,100555.72
2022-09-04T10:12:13.801Z,100558.09
2022-09-04T10:14:52.571Z,100559.19
2022-09-04T10:17:22.927Z,100559.06
2022-09-04T10:20:10.000Z,100552.31
2022-09-04T10:22:51.890Z,100555.47
2022-09-04T10:25:38.997Z,100547.16
2022-09-04T10:28:08.852Z,100545.50
2022-09-04T10:30:35.983Z,100550.13
2022-09-04T10:33:12.136Z,100550.06
2022-09-04T10:35:46.052Z,100547.09
2022-09-04T10:38:13.039Z,100549.41
2022-09-04T10:40:44.485Z,100556.63
2022-09-04T10:43:48.533Z,100553.16
2022-09-04T10:46:36.319Z,100556.72
2022-09-04T10:49:31.863Z,100554.72
2022-09-04T10:52:24.568Z,100558.38
2022-09-04T10:55:11.776Z,100560.19
2022-09-04T10:57:38.940Z,100563.22
2022-09-04T11:00:06.717Z,100561.91
2022-09-04T11:02:36.667Z,100564.81
2022-09-04T11:05:22.804Z,100554.41
2022-09-04T11:07:52.672Z,100557.34
2022-09-04T11:10:21.788Z,100547.84
2022-09-04T11:12:54.552Z,100557.31
2022-09-04T11:15:37.607Z,100561.13
2022-09-04T11:18:23.460Z,100555.31
2022-09-04T11:21:09.493Z,100554.53
2022-09-04T11:23:36.440Z,100554.47
2022-09-04T11:26:14.370Z,100552.94
2022-09-04T11:29:01.061Z,100560.94
2022-09-04T11:31:41.521Z,100551.25
2022-09-04T11:34:20.894Z,100558.41
2022-09-04T11:37:06.395Z,100549.66
2022-09-04T11:39:39.503Z,100560.50
2022-09-04T11:42:27.727Z,100562.81
2022-09-04T11:45:16.827Z,100555.06
2022-09-04T11:48:02.770Z,100557.28
2022-09-04T11:50:30.627Z,100559.63
2022-09-04T11:52:58.108Z,100562.28
2022-09-04T11:55:40.282Z,100554.25
2022-09-04T11:58:10.511Z,100541.88
2022-09-04T12:00:59.499Z,100545.59
2022-09-04T12:03:45.136Z,100538.50
2022-09-04T12:06:20.789Z,100536.13
2022-09-04T12:08:58.483Z,100533.47
2022-09-04T12:11:44.239Z,100534.56
2022-09-04T12:14:33.098Z,100537.47
2022-09-04T12:17:15.710Z,100531.38
2022-09-04T12:19:50.468Z,100542.50
2022-09-04T12:22:23.423Z,100539.97
2022-09-04T12:24:50.520Z,100552.44
2022-09-04T12:27:17.349Z,100549.56
2022-09-04T12:29:58.705Z,100537.94
2022-09-04T12:32:51.979Z,100532.59
2022-09-04T12:35:50.600Z,100542.16
2022-09-04T12:38:25.001Z,100555.88
2022-09-04T12:40:54.597Z,100543.97
2022-09-04T12:43:24.861Z,100543.19
2022-09-04T12:46:26.830Z,100543.47
2022-09-04T12:49:02.455Z,100541.34
2022-09-04T12:51:35.417Z,100538.47
2022-09-04T12:54:14.281Z,100541.63
2022-09-04T12:56:56.478Z,100539.50
2022-09-04T12:59:42.187Z,100540.28
2022-09-04T13:02:11.769Z,100546.09
2022-09-04T13:04:57.607Z,100544.78
2022-09-04T13:07:30.924Z,100549.25
2022-09-04T13:10:11.769Z,100542.13
2022-09-04T13:12:47.675Z,100543.72
2022-09-04T13:15:19.534Z,100538.47
2022-09-04T13:17:56.078Z,100541.63
2022-09-04T13:20:27.412Z,100546.13
2022-09-04T13:22:57.945Z,100547.97
2022-09-04T13:25:27.371Z,100538.47
2022-09-04T13:28:00.414Z,100551.09
2022-09-04T13:30:28.035Z,100538.44
2022-09-04T13:33:13.957Z,100540.78
2022-09-04T13:36:00.284Z,100545.78
2022-09-04T13:38:27.993Z,100546.81
2022-09-04T13:41:13.570Z,100544.13
2022-09-04T13:43:47.054Z,100538.28
2022-09-04T13:46:16.088Z,100536.16
2022-09-04T13:48:44.821Z,100536.94
2022-09-04T13:51:44.861Z,100542.47
2022-09-04T13:54:18.117Z,100531.25
2022-09-04T13:56:49.733Z,100533.13
2022-09-04T13:59:17.775Z,100525.66
2022-09-04T14:01:48.037Z,100524.28
2022-09-04T14:04:26.861Z,100512.72
2022-09-04T14:07:06.744Z,100518.13
2022-09-04T14:09:39.214Z,100514.50
2022-09-04T14:12:25.039Z,100514.75
2022-09-04T14:14:55.756Z,100521.66
2022-09-04T14:17:27.138Z,100512.47
2022-09-04T14:20:12.586Z,100516.19
2022-09-04T14:22:45.555Z,100514.63
2022-09-04T14:25:16.100Z,100518.34
2022-09-04T14:27:49.357Z,100523.09
2022-09-04T14:30:17.437Z,100523.38
2022-09-04T14:32:45.261Z,100524.19
2022-09-04T14:35:17.900Z,100513.09
2022-09-04T14:37:48.510Z,100515.97
2022-09-04T14:40:27.568Z,100522.59
2022-09-04T14:42:58.373Z,100519.38
2022-09-04T14:45:46.899Z,100519.09
2022-09-04T14:48:15.874Z,100523.28
2022-09-04T14:51:04.932Z,100528.81
2022-09-04T14:53:34.192Z,100529.31
2022-09-04T14:56:11.555Z,100529.84
2022-09-04T14:59:07.141Z,100535.13
2022-09-04T15:01:35.689Z,100534.09
2022-09-04T15:04:06.123Z,100535.66
2022-09-04T15:07:10.772Z,100532.00
2022-09-04T15:09:41.121Z,100536.75
2022-09-04T15:12:25.329Z,100526.22
2022-09-04T15:15:06.091Z,100538.13
2022-09-04T15:17:34.505Z,100536.31
2022-09-04T15:20:17.805Z,100538.19
2022-09-04T15:22:50.760Z,100539.50
2022-09-04T15:25:17.972Z,100536.84
2022-09-04T15:27:49.781Z,100532.09
2022-09-04T15:30:16.697Z,100527.88
2022-09-04T15:32:45.130Z,100521.50
2022-09-04T15:35:12.008Z,100516.25
2022-09-04T15:37:38.910Z,100522.59
2022-09-04T15:40:12.243Z,100521.25
2022-09-04T15:42:47.044Z,100521.53
2022-09-04T15:45:18.343Z,100518.38
2022-09-04T15:48:05.445Z,100520.22
2022-09-04T15:50:37.579Z,100517.81
2022-09-04T15:53:23.966Z,100524.94
2022-09-04T15:56:09.530Z,100527.59
2022-09-04T15:58:42.215Z,100524.69
2022-09-04T16:01:17.537Z,100539.94
2022-09-04T16:03:44.816Z,100534.41
2022-09-04T16:06:20.726Z,100544.19
2022-09-04T16:08:50.060Z,100541.78
2022-09-04T16:11:18.527Z,100542.03
2022-09-04T16:13:53.021Z,100543.88
2022-09-04T16:16:25.875Z,100542.56
2022-09-04T16:19:02.867Z,100547.84
2022-09-04T16:21:54.471Z,100541.47
2022-09-04T16:24:30.169Z,100550.72
2022-09-04T16:26:57.679Z,100548.88
2022-09-04T16:29:30.164Z,100554.69
2022-09-04T16:31:58.371Z,100552.81
2022-09-04T16:34:31.658Z,100558.31
2022-09-04T16:37:01.899Z,100549.34
2022-09-04T16:39:35.947Z,100558.06
2022-09-04T16:42:12.231Z,100559.63
2022-09-04T16:44:45.524Z,100569.91
2022-09-04T16:47:23.783Z,100561.97
2022-09-04T16:49:59.277Z,100570.88
2022-09-04T16:52:43.745Z,100563.50
2022-09-04T16:55:13.943Z,100569.84
2022-09-04T16:57:42.491Z,100575.84
2022-09-04T17:00:10.660Z,100577.16
2022-09-04T17:02:45.150Z,100580.00
2022-09-04T17:05:28.457Z,100573.91
2022-09-04T17:08:02.208Z,100575.44
2022-09-04T17:10:41.675Z,100576.03
2022-09-04T17:13:12.213Z,100576.25
2022-09-04T17:15:53.127Z,100581.72
2022-09-04T17:18:22.311Z,100585.91
2022-09-04T17:22:17.045Z,100581.66
2022-09-04T17:29:01.967Z,100594.28
2022-09-04T17:29:11.310Z,100598.47
2022-09-04T17:29:38.275Z,100594.72
2022-09-04T17:32:36.837Z,100605.22
2022-09-04T17:40:32.570Z,100606.22
2022-09-04T17:40:54.605Z,100610.41
2022-09-04T17:41:35.875Z,100613.75
2022-09-04T17:44:05.672Z,100610.28
2022-09-04T17:46:35.670Z,100613.91
2022-09-04T17:49:09.584Z,100628.63
2022-09-04T17:51:36.722Z,100626.69
2022-09-04T17:54:10.187Z,100626.41
2022-09-04T17:56:51.719Z,100622.66
2022-09-04T17:59:41.451Z,100623.94
2022-09-04T18:02:14.978Z,100624.69
2022-09-04T18:04:47.341Z,100629.44
2022-09-04T18:08:07.472Z,100625.69
2022-09-04T18:10:34.367Z,100629.34
2022-09-04T18:13:36.433Z,100640.69
2022-09-04T18:16:16.411Z,100641.47
2022-09-04T18:18:53.378Z,100643.06
2022-09-04T18:21:40.245Z,100653.59
2022-09-04T18:24:09.832Z,100649.09
2022-09-04T18:26:58.217Z,100658.88
2022-09-04T18:31:48.244Z,100658.88
2022-09-04T18:37:07.429Z,100662.53
2022-09-04T18:37:25.132Z,100674.34
2022-09-04T18:39:08.473Z,100678.50
2022-09-04T18:50:30.250Z,100681.06
2022-09-04T18:50:33.352Z,100679.19
2022-09-04T18:50:33.816Z,100683.56
2022-09-04T18:51:18.429Z,100689.56
2022-09-04T18:53:44.525Z,100687.97
2022-09-04T18:56:20.848Z,100686.84
2022-09-04T18:59:08.353Z,100685.75
2022-09-04T19:01:50.663Z,100686.25
2022-09-04T19:04:29.162Z,100687.75
2022-09-04T19:07:07.378Z,100684.56
2022-09-04T19:09:55.513Z,100689.28
2022-09-04T19:12:24.833Z,100694.19
2022-09-04T19:15:03.865Z,100690.22
2022-09-04T19:17:35.195Z,100692.28
2022-09-04T19:20:09.147Z,100708.88
2022-09-04T19:22:41.474Z,100704.59
2022-09-04T19:25:21.230Z,100707.44
2022-09-04T19:28:18.156Z,100711.59
2022-09-04T19:30:57.762Z,100709.19
2022-09-04T19:33:40.772Z,100705.22
2022-09-04T19:36:11.094Z,100703.63
2022-09-04T19:45:54.954Z,100692.16
2022-09-04T19:46:05.151Z,100701.47
2022-09-04T19:46:11.954Z,100691.09
2022-09-04T19:47:27.329Z,100695.00
2022-09-04T19:53:24.221Z,100692.84
2022-09-04T19:53:30.487Z,100689.66
2022-09-04T19:56:13.452Z,100691.19
2022-09-04T19:58:55.853Z,100691.66
2022-09-04T20:01:25.408Z,100684.47
2022-09-04T20:03:52.275Z,100695.00
2022-09-04T20:06:22.557Z,100699.88
2022-09-04T20:08:58.259Z,100705.09
2022-09-04T20:11:35.539Z,100697.13
2022-09-04T20:14:14.260Z,100698.63
2022-09-04T20:17:10.683Z,100705.94
2022-09-04T20:19:38.820Z,100701.97
2022-09-04T20:22:06.100Z,100704.81
2022-09-04T20:24:32.872Z,100701.59
2022-09-04T20:27:06.221Z,100698.66
2022-09-04T20:29:36.218Z,100701.97
2022-09-04T20:32:27.312Z,100701.41
2022-09-04T20:34:57.071Z,100706.09
2022-09-04T20:37:39.656Z,100705.53
2022-09-04T20:40:21.448Z,100710.78
2022-09-04T20:43:03.733Z,100713.34
2022-09-04T20:48:43.330Z,100715.19
2022-09-04T20:52:58.599Z,100727.47
2022-09-04T20:53:04.505Z,100721.34
2022-09-04T20:54:30.747Z,100722.63
2022-09-04T20:58:40.382Z,100728.09
2022-09-04T21:03:07.863Z,100730.13
2022-09-04T21:03:17.735Z,100735.63
2022-09-04T21:05:36.201Z,100725.56
2022-09-04T21:08:10.105Z,100730.28
2022-09-04T21:10:53.493Z,100731.31
2022-09-04T21:13:26.644Z,100730.69
2022-09-04T21:16:03.074Z,100734.94
2022-09-04T21:18:42.500Z,100738.56
2022-09-04T21:21:27.748Z,100731.19
2022-09-04T21:24:22.173Z,100749.78
2022-09-04T21:26:49.332Z,100750.25
2022-09-04T21:29:35.155Z,100760.41
2022-09-04T21:32:22.495Z,100758.47
2022-09-04T21:34:57.284Z,100753.94
2022-09-04T21:37:30.345Z,100755.41
2022-09-04T21:40:21.659Z,100757.44
2022-09-04T21:43:24.834Z,100758.47
2022-09-04T21:46:13.100Z,100761.56
2022-09-04T21:49:02.704Z,100758.34
2022-09-04T21:51:53.731Z,100763.59
2022-09-04T21:56:22.739Z,100755.38
2022-09-04T22:02:25.257Z,100758.22
2022-09-04T22:02:42.822Z,100760.31
2022-09-04T22:03:03.013Z,100756.66
2022-09-04T22:05:45.429Z,100753.47
2022-09-04T22:12:22.330Z,100752.84
2022-09-04T22:13:41.992Z,100750.47
2022-09-04T22:14:21.865Z,100752.84
2022-09-04T22:17:03.297Z,100750.47
2022-09-04T22:19:46.991Z,100743.63
2022-09-04T22:22:32.821Z,100745.94
2022-09-04T22:25:18.196Z,100742.94
2022-09-04T22:28:07.567Z,100742.16
2022-09-04T22:30:53.999Z,100748.41
2022-09-04T22:33:23.854Z,100745.22
2022-09-04T22:36:15.004Z,100745.09
2022-09-04T22:39:00.853Z,100749.06
2022-09-04T22:41:30.300Z,100746.19
2022-09-04T22:44:09.462Z,100747.31
2022-09-04T22:46:49.977Z,100754.47
2022-09-04T22:49:42.208Z,100753.53
2022-09-04T22:52:18.020Z,100755.63
2022-09-04T22:55:38.575Z,100758.63
2022-09-04T22:58:24.634Z,100760.72
2022-09-04T23:01:06.909Z,100752.03
2022-09-04T23:03:40.171Z,100754.66
2022-09-04T23:07:50.810Z,100754.66
2022-09-04T23:13:57.314Z,100757.50
2022-09-04T23:14:02.222Z,100762.19
2022-09-04T23:15:21.282Z,100756.78
2022-09-04T23:21:31.466Z,100752.78
2022-09-04T23:26:38.631Z,100755.28
2022-09-04T23:26:50.362Z,100752.97
2022-09-04T23:27:06.072Z,100754.22
2022-09-04T23:29:40.996Z,100754.22
2022-09-04T23:32:09.980Z,100756.84
2022-09-04T23:34:37.863Z,100758.44
2022-09-04T23:37:06.491Z,100752.19
2022-09-04T23:39:52.341Z,100753.78
2022-09-04T23:42:39.001Z,100748.06
2022-09-04T23:45:36.782Z,100759.34
2022-09-04T23:48:33.015Z,100750.91
2022-09-04T23:51:12.158Z,100752.75
2022-09-04T23:53:57.415Z,100756.94
2022-09-04T23:56:33.356Z,100750.56
2022-09-04T23:59:37.878Z,100750.56
